Time;durP1;ratioP1;P1;durP2;ratioP2;P2;SDS_P1;SDS_P2;PMS_P1;PMS_P2;Temp;Humidity;BMP_temperature;BMP_pressure;BME280_temperature;BME280_humidity;BME280_pressure;Samples;Min_cycle;Max_cycle;Signal;HPM_P1;HPM_P2
2023/10/24 00:02:08;;;;;;;13.03;6.30;;;14.20;99.90;;;;;;5048783;28;21233;-60
2023/10/24 00:04:36;;;;;;;7.90;5.00;;;14.20;99.90;;;;;;5051827;28;20463;-63
2023/10/24 00:07:03;;;;;;;18.57;6.37;;;14.20;99.90;;;;;;5052600;28;20498;-62
2023/10/24 00:09:30;;;;;;;13.20;6.23;;;14.20;99.90;;;;;;5049611;28;20563;-62
2023/10/24 00:11:57;;;;;;;8.40;4.93;;;14.30;99.90;;;;;;5071738;28;20490;-63
2023/10/24 00:14:25;;;;;;;35.70;7.20;;;14.30;99.90;;;;;;5079498;28;20570;-62
2023/10/24 00:16:53;;;;;;;8.50;4.93;;;14.30;99.90;;;;;;5048815;28;21011;-63
2023/10/24 00:19:21;;;;;;;9.13;5.20;;;14.30;99.90;;;;;;5044283;28;20869;-63
2023/10/24 00:21:51;;;;;;;9.73;4.20;;;14.40;99.90;;;;;;5068409;28;20483;-62
2023/10/24 00:24:25;;;;;;;4.53;3.87;;;14.40;99.90;;;;;;5057885;28;20918;-63
2023/10/24 00:26:55;;;;;;;6.27;3.20;;;14.40;99.90;;;;;;5064885;28;20544;-64
2023/10/24 00:29:23;;;;;;;7.67;3.17;;;14.50;99.90;;;;;;5060045;28;20475;-64
2023/10/24 00:31:51;;;;;;;6.87;3.73;;;14.50;99.90;;;;;;5051574;28;20481;-62
2023/10/24 00:34:20;;;;;;;3.50;3.17;;;14.50;99.90;;;;;;5048409;28;20524;-62
2023/10/24 00:36:56;;;;;;;5.97;3.60;;;14.60;99.90;;;;;;5050890;28;20519;-62
2023/10/24 00:39:23;;;;;;;18.80;3.67;;;14.70;99.90;;;;;;5056631;28;20855;-62
2023/10/24 00:41:50;;;;;;;14.80;4.03;;;14.60;99.90;;;;;;5057354;28;20479;-63
2023/10/24 00:44:16;;;;;;;8.57;3.00;;;14.70;99.90;;;;;;5056226;28;21682;-62
2023/10/24 00:46:43;;;;;;;3.47;3.00;;;14.80;99.90;;;;;;5048612;28;20501;-62
2023/10/24 00:49:11;;;;;;;13.83;3.27;;;14.70;99.90;;;;;;5084291;28;21063;-62
2023/10/24 00:51:38;;;;;;;4.50;2.60;;;14.70;99.90;;;;;;5057428;28;20492;-62
2023/10/24 00:54:06;;;;;;;8.37;3.23;;;14.80;99.90;;;;;;5072046;28;20595;-63
2023/10/24 00:56:34;;;;;;;17.63;3.40;;;14.80;99.90;;;;;;5053903;28;20492;-62
2023/10/24 00:59:03;;;;;;;12.47;3.87;;;14.80;99.90;;;;;;5066216;28;20487;-61
2023/10/24 01:01:32;;;;;;;6.33;3.50;;;14.80;99.90;;;;;;5057978;28;20482;-62
2023/10/24 01:04:01;;;;;;;3.93;3.23;;;14.80;99.90;;;;;;5068324;28;20481;-62
2023/10/24 01:06:27;;;;;;;4.40;2.70;;;14.80;99.90;;;;;;5049546;28;20756;-61
2023/10/24 01:08:54;;;;;;;31.90;4.70;;;;;;;;;;5083175;28;20483;-62
2023/10/24 01:11:23;;;;;;;5.60;3.77;;;14.80;99.90;;;;;;5070437;28;20548;-63
2023/10/24 01:13:50;;;;;;;6.07;2.83;;;14.80;99.90;;;;;;5051427;28;20483;-62
2023/10/24 01:16:18;;;;;;;13.23;3.63;;;14.80;99.90;;;;;;5055450;28;20561;-62
2023/10/24 01:18:46;;;;;;;5.53;3.27;;;14.80;99.90;;;;;;5057401;28;20562;-62
2023/10/24 01:21:13;;;;;;;4.60;3.60;;;14.80;99.90;;;;;;5057689;28;20479;-62
2023/10/24 01:23:43;;;;;;;11.50;4.13;;;14.70;99.90;;;;;;5050238;28;20717;-62
2023/10/24 01:26:15;;;;;;;7.40;3.50;;;14.70;99.90;;;;;;5071008;28;20825;-62
2023/10/24 01:28:43;;;;;;;16.20;5.00;;;;;;;;;;5057332;28;20819;-65
2023/10/24 01:31:12;;;;;;;9.93;4.37;;;14.60;99.90;;;;;;5070884;28;20484;-65
2023/10/24 01:33:40;;;;;;;7.83;4.20;;;14.60;99.90;;;;;;5061797;28;20471;-66
2023/10/24 01:36:08;;;;;;;6.27;4.40;;;14.50;99.90;;;;;;5057547;28;20556;-65
2023/10/24 01:38:36;;;;;;;15.63;4.60;;;14.50;99.90;;;;;;5049637;28;20497;-66
2023/10/24 01:41:06;;;;;;;9.30;3.80;;;14.50;99.90;;;;;;5080360;28;20509;-65
2023/10/24 01:43:34;;;;;;;16.20;4.90;;;14.50;99.90;;;;;;5043528;28;20753;-65
2023/10/24 01:46:02;;;;;;;4.10;3.70;;;14.50;99.90;;;;;;5056104;28;20486;-65
2023/10/24 01:48:31;;;;;;;16.43;4.20;;;14.50;99.90;;;;;;5059647;28;21100;-63
2023/10/24 01:50:58;;;;;;;3.73;3.33;;;14.60;99.90;;;;;;5073178;28;20921;-62
2023/10/24 01:53:25;;;;;;;10.03;3.87;;;14.50;99.90;;;;;;5058517;28;20493;-63
2023/10/24 01:55:51;;;;;;;5.90;4.33;;;14.50;99.90;;;;;;5061103;28;20564;-62
2023/10/24 01:58:19;;;;;;;6.10;3.87;;;14.40;99.90;;;;;;5060501;28;20876;-62
2023/10/24 02:00:46;;;;;;;4.87;3.47;;;14.30;99.90;;;;;;5057410;28;20716;-63
2023/10/24 02:03:13;;;;;;;4.73;4.23;;;14.30;99.90;;;;;;5060630;28;20569;-63
2023/10/24 02:05:40;;;;;;;4.90;4.10;;;14.20;99.90;;;;;;5059285;28;20554;-63
2023/10/24 02:08:07;;;;;;;10.60;4.90;;;14.20;99.90;;;;;;5078208;28;20569;-62
2023/10/24 02:10:34;;;;;;;9.83;3.90;;;14.20;99.90;;;;;;5059741;28;20897;-62
2023/10/24 02:13:01;;;;;;;11.43;4.07;;;14.10;99.90;;;;;;5060354;28;20958;-63
2023/10/24 02:15:29;;;;;;;4.77;3.20;;;14.10;99.90;;;;;;5044945;28;20508;-62
2023/10/24 02:17:56;;;;;;;17.73;4.00;;;14.10;99.90;;;;;;5080027;28;20498;-65
2023/10/24 02:20:22;;;;;;;7.13;3.40;;;14.10;99.90;;;;;;5070381;28;20635;-65
2023/10/24 02:22:49;;;;;;;9.57;4.60;;;14.10;99.90;;;;;;5089387;28;21096;-65
2023/10/24 02:25:16;;;;;;;13.10;4.43;;;14.10;99.90;;;;;;5063255;28;20557;-65
2023/10/24 02:27:43;;;;;;;5.63;3.80;;;14.10;99.90;;;;;;5042144;28;21057;-65
2023/10/24 02:30:11;;;;;;;5.40;3.93;;;14.10;99.90;;;;;;5061094;28;20884;-65
2023/10/24 02:32:39;;;;;;;9.40;3.67;;;14.20;99.90;;;;;;5068973;28;20489;-65
2023/10/24 02:35:06;;;;;;;8.83;3.60;;;14.20;99.90;;;;;;5080551;28;20481;-66
2023/10/24 02:37:33;;;;;;;7.10;4.20;;;14.10;99.90;;;;;;5068266;28;20579;-65
2023/10/24 02:40:00;;;;;;;4.37;3.40;;;14.20;99.90;;;;;;5073639;28;20485;-65
2023/10/24 02:42:27;;;;;;;6.80;3.73;;;14.20;99.90;;;;;;5067355;28;20948;-65
2023/10/24 02:44:54;;;;;;;10.37;3.50;;;14.10;99.90;;;;;;5070010;28;20841;-65
2023/10/24 02:47:20;;;;;;;5.23;3.57;;;14.10;99.90;;;;;;5059232;28;21070;-64
2023/10/24 02:49:49;;;;;;;4.20;3.80;;;14.10;99.90;;;;;;5068002;28;20477;-65
2023/10/24 02:52:16;;;;;;;37.73;5.93;;;14.20;99.90;;;;;;5081145;28;20552;-66
2023/10/24 02:54:43;;;;;;;16.33;4.60;;;14.10;99.90;;;;;;5078334;28;21013;-65
2023/10/24 02:57:10;;;;;;;5.17;3.23;;;14.10;99.90;;;;;;5059625;28;20860;-65
2023/10/24 02:59:37;;;;;;;11.63;3.40;;;14.10;99.90;;;;;;5039189;28;20557;-65
2023/10/24 03:02:04;;;;;;;11.73;4.90;;;14.20;99.90;;;;;;5073452;28;21129;-64
2023/10/24 03:04:31;;;;;;;5.67;3.87;;;14.10;99.90;;;;;;5057629;28;21029;-65
2023/10/24 03:06:59;;;;;;;18.53;3.73;;;14.20;99.90;;;;;;5080877;28;20556;-65
2023/10/24 03:09:26;;;;;;;5.93;3.43;;;14.20;99.90;;;;;;5074192;28;20479;-65
2023/10/24 03:11:52;;;;;;;7.87;2.90;;;14.30;99.90;;;;;;5068266;28;20509;-66
2023/10/24 03:14:19;;;;;;;10.03;3.30;;;14.30;99.90;;;;;;5051394;28;20502;-65
2023/10/24 03:16:46;;;;;;;3.50;2.77;;;14.30;99.90;;;;;;5086977;28;20562;-65
2023/10/24 03:19:13;;;;;;;6.87;3.43;;;14.20;99.90;;;;;;5056568;28;20494;-65
2023/10/24 03:21:39;;;;;;;4.57;3.77;;;14.30;99.90;;;;;;5039807;28;20958;-65
2023/10/24 03:24:09;;;;;;;11.10;3.40;;;14.40;99.90;;;;;;5071874;28;20554;-65
2023/10/24 03:26:36;;;;;;;23.37;4.60;;;14.50;99.90;;;;;;5054124;28;20864;-65
2023/10/24 03:29:03;;;;;;;5.60;3.50;;;14.60;99.90;;;;;;5059371;28;20511;-64
2023/10/24 03:31:30;;;;;;;6.93;3.90;;;14.60;99.90;;;;;;5035785;28;20558;-64
2023/10/24 03:33:56;;;;;;;10.73;4.13;;;14.50;99.90;;;;;;5071458;28;20554;-65
2023/10/24 03:36:23;;;;;;;8.07;3.53;;;14.50;99.90;;;;;;5081740;28;21026;-64
2023/10/24 03:38:50;;;;;;;3.13;2.73;;;14.60;99.90;;;;;;5059735;28;20495;-64
2023/10/24 03:41:18;;;;;;;16.23;4.27;;;14.50;99.90;;;;;;5057973;28;20479;-65
2023/10/24 03:43:48;;;;;;;7.43;4.10;;;14.40;99.90;;;;;;5060479;28;21416;-65
2023/10/24 03:46:15;;;;;;;5.70;3.70;;;14.40;99.90;;;;;;5069562;28;20482;-65
2023/10/24 03:48:42;;;;;;;14.50;4.60;;;14.20;99.90;;;;;;5051316;28;20483;-65
2023/10/24 03:51:09;;;;;;;7.53;4.10;;;14.20;99.90;;;;;;5055094;28;20480;-65
2023/10/24 03:53:36;;;;;;;8.13;3.93;;;14.20;99.90;;;;;;5065580;28;20480;-66
2023/10/24 03:56:03;;;;;;;4.40;3.87;;;;;;;;;;5059877;28;20581;-65
2023/10/24 03:58:31;;;;;;;4.13;3.73;;;14.10;99.90;;;;;;5055207;28;20487;-65
2023/10/24 04:01:04;;;;;;;23.07;4.47;;;14.10;99.90;;;;;;5049533;28;20564;-65
2023/10/24 04:03:30;;;;;;;11.13;4.20;;;14.10;99.90;;;;;;5066550;28;21301;-65
2023/10/24 04:05:57;;;;;;;7.13;4.27;;;14.10;99.90;;;;;;5078451;28;20498;-66
2023/10/24 04:08:24;;;;;;;5.57;3.60;;;14.10;99.90;;;;;;5061528;28;20487;-65
2023/10/24 04:10:51;;;;;;;8.70;3.43;;;14.10;99.90;;;;;;5059084;28;20511;-65
2023/10/24 04:13:17;;;;;;;6.77;3.50;;;14.10;99.90;;;;;;5057044;28;20453;-66
2023/10/24 04:15:46;;;;;;;5.70;3.20;;;14.20;99.90;;;;;;5076214;28;20807;-65
2023/10/24 04:18:12;;;;;;;4.17;3.43;;;14.20;99.90;;;;;;5071021;28;20485;-65
2023/10/24 04:20:42;;;;;;;10.80;3.70;;;;;;;;;;5037065;28;20553;-64
2023/10/24 04:23:14;;;;;;;12.53;3.73;;;14.50;99.90;;;;;;5068083;28;20481;-64
2023/10/24 04:25:41;;;;;;;3.97;3.20;;;14.60;99.90;;;;;;5067484;28;20497;-65
2023/10/24 04:28:08;;;;;;;3.60;3.30;;;14.70;99.90;;;;;;5057022;28;20888;-65
2023/10/24 04:30:35;;;;;;;15.20;4.10;;;14.90;99.90;;;;;;5069346;28;20569;-65
2023/10/24 04:33:04;;;;;;;4.37;3.10;;;14.90;99.90;;;;;;5065726;28;21054;-65
2023/10/24 04:35:30;;;;;;;31.27;4.13;;;14.90;99.90;;;;;;5070575;28;20489;-65
2023/10/24 04:37:57;;;;;;;3.87;3.03;;;15.00;99.90;;;;;;5060746;28;20553;-65
2023/10/24 04:40:24;;;;;;;7.03;3.60;;;15.10;99.90;;;;;;5049960;28;20478;-66
2023/10/24 04:42:51;;;;;;;24.70;4.30;;;15.10;99.90;;;;;;5084038;28;20562;-66
2023/10/24 04:45:18;;;;;;;8.70;2.73;;;15.10;99.90;;;;;;5058259;28;20483;-65
2023/10/24 04:47:45;;;;;;;3.80;2.73;;;15.10;99.90;;;;;;5058924;28;20562;-65
2023/10/24 04:50:13;;;;;;;6.40;2.93;;;15.10;99.90;;;;;;5059138;28;20889;-65
2023/10/24 04:52:40;;;;;;;6.43;3.90;;;15.10;99.90;;;;;;5057312;28;20572;-65
2023/10/24 04:55:08;;;;;;;5.37;2.90;;;15.10;99.90;;;;;;5079751;28;20557;-65
2023/10/24 04:57:34;;;;;;;17.27;3.97;;;15.00;99.90;;;;;;5058594;28;20558;-65
2023/10/24 05:00:03;;;;;;;4.30;3.90;;;14.90;99.90;;;;;;5059570;28;20571;-62
2023/10/24 05:02:30;;;;;;;4.77;3.17;;;14.90;99.90;;;;;;5055090;28;20475;-62
2023/10/24 05:04:57;;;;;;;6.33;3.10;;;14.60;99.90;;;;;;5054168;28;20530;-62
2023/10/24 05:07:25;;;;;;;7.10;3.40;;;14.60;99.90;;;;;;5053270;28;20566;-62
2023/10/24 05:09:52;;;;;;;46.90;5.73;;;14.50;99.90;;;;;;5075037;28;20484;-62
2023/10/24 05:12:18;;;;;;;9.37;3.30;;;14.50;99.90;;;;;;5055587;28;20515;-61
2023/10/24 05:14:45;;;;;;;4.17;2.90;;;14.50;99.90;;;;;;5062697;28;20484;-61
2023/10/24 05:17:13;;;;;;;6.03;2.53;;;14.50;99.90;;;;;;5074776;28;20562;-61
2023/10/24 05:19:41;;;;;;;6.90;3.00;;;14.50;99.90;;;;;;5048064;28;20475;-61
2023/10/24 05:22:09;;;;;;;4.20;3.03;;;14.50;99.90;;;;;;5054633;28;20487;-61
2023/10/24 05:24:39;;;;;;;11.37;3.13;;;14.40;99.90;;;;;;5060155;28;20506;-61
2023/10/24 05:27:06;;;;;;;6.63;3.20;;;14.40;99.90;;;;;;5059775;28;20493;-62
2023/10/24 05:29:34;;;;;;;3.23;2.83;;;14.40;99.90;;;;;;5059184;28;20478;-62
2023/10/24 05:32:00;;;;;;;10.90;3.63;;;14.30;99.90;;;;;;5051343;28;20483;-61
2023/10/24 05:34:27;;;;;;;6.50;2.80;;;14.30;99.90;;;;;;5070314;28;20484;-61
2023/10/24 05:36:55;;;;;;;10.43;3.40;;;14.20;99.90;;;;;;5069196;28;20891;-61
2023/10/24 05:39:24;;;;;;;14.53;3.10;;;14.30;99.90;;;;;;5061581;28;20609;-63
2023/10/24 05:41:52;;;;;;;4.50;2.83;;;14.40;99.90;;;;;;5058397;28;20479;-61
2023/10/24 05:44:19;;;;;;;14.57;3.50;;;14.50;99.90;;;;;;5061175;28;21032;-62
2023/10/24 05:46:46;;;;;;;5.83;3.63;;;14.60;99.90;;;;;;5052895;28;21019;-61
2023/10/24 05:49:12;;;;;;;3.70;3.00;;;14.60;99.90;;;;;;5053088;28;20477;-61
2023/10/24 05:51:39;;;;;;;4.00;3.03;;;14.60;99.90;;;;;;5075704;28;20478;-61
2023/10/24 05:54:06;;;;;;;4.83;3.20;;;14.60;99.90;;;;;;5048189;28;20497;-62
2023/10/24 05:56:33;;;;;;;5.33;3.50;;;14.60;99.90;;;;;;5069491;28;20479;-61
2023/10/24 05:59:01;;;;;;;15.27;3.63;;;14.70;99.90;;;;;;5038991;28;21051;-61
2023/10/24 06:01:28;;;;;;;3.43;3.13;;;14.70;99.90;;;;;;5067464;28;20477;-61
2023/10/24 06:03:55;;;;;;;5.10;3.60;;;14.70;99.90;;;;;;5088513;28;20968;-61
2023/10/24 06:06:21;;;;;;;12.20;3.90;;;14.80;99.90;;;;;;5071174;28;21214;-62
2023/10/24 06:08:48;;;;;;;4.03;2.70;;;14.70;99.90;;;;;;5061675;28;20517;-62
2023/10/24 06:11:16;;;;;;;4.47;3.27;;;14.80;99.90;;;;;;5061521;28;20465;-61
2023/10/24 06:13:43;;;;;;;3.67;3.20;;;;;;;;;;5052124;28;20912;-62
2023/10/24 06:16:12;;;;;;;4.00;3.50;;;14.80;99.90;;;;;;5060644;28;21062;-61
2023/10/24 06:18:40;;;;;;;46.27;5.33;;;;;;;;;;5046270;28;20485;-62
2023/10/24 06:21:08;;;;;;;3.80;2.93;;;14.90;99.90;;;;;;5055051;28;20487;-62
2023/10/24 06:23:37;;;;;;;4.17;3.60;;;14.80;99.90;;;;;;5054333;28;20566;-62
2023/10/24 06:26:04;;;;;;;4.77;3.70;;;14.80;99.90;;;;;;5061339;28;20919;-61
2023/10/24 06:28:31;;;;;;;7.57;3.43;;;14.80;99.90;;;;;;5061065;28;21092;-62
2023/10/24 06:30:58;;;;;;;3.20;2.90;;;14.80;99.90;;;;;;5049679;28;21922;-62
2023/10/24 06:33:27;;;;;;;15.53;3.17;;;14.80;99.90;;;;;;5090526;28;20475;-62
2023/10/24 06:35:54;;;;;;;12.00;3.77;;;14.80;99.90;;;;;;5061485;28;21178;-60
2023/10/24 06:38:21;;;;;;;7.00;4.00;;;14.80;99.90;;;;;;5081586;28;21394;-62
2023/10/24 06:40:48;;;;;;;21.47;5.80;;;14.90;99.90;;;;;;5060531;28;20574;-60
2023/10/24 06:43:15;;;;;;;6.47;4.23;;;14.80;99.90;;;;;;5057402;28;20574;-60
2023/10/24 06:45:43;;;;;;;5.40;3.60;;;14.80;99.90;;;;;;5060942;28;20869;-61
2023/10/24 06:48:11;;;;;;;3.70;2.63;;;14.80;99.90;;;;;;5061182;28;20552;-61
2023/10/24 06:50:39;;;;;;;4.77;3.10;;;14.80;99.90;;;;;;5077249;28;20485;-61
2023/10/24 06:53:05;;;;;;;20.97;4.33;;;14.80;99.90;;;;;;5066584;28;20471;-61
2023/10/24 06:55:32;;;;;;;5.03;4.00;;;14.80;99.90;;;;;;5060878;28;20518;-62
2023/10/24 06:57:59;;;;;;;8.60;4.70;;;14.80;99.90;;;;;;5074671;28;20577;-65
2023/10/24 07:00:26;;;;;;;12.43;4.43;;;14.80;99.90;;;;;;5076315;28;20552;-65
2023/10/24 07:02:53;;;;;;;11.63;5.27;;;14.80;99.90;;;;;;5053620;28;20481;-65
2023/10/24 07:05:20;;;;;;;11.00;8.17;;;14.90;99.90;;;;;;5077093;28;20494;-64
2023/10/24 07:07:49;;;;;;;30.67;8.30;;;14.90;99.90;;;;;;5062651;28;20479;-64
2023/10/24 07:10:16;;;;;;;63.30;9.87;;;14.90;99.90;;;;;;5072337;28;21169;-64
2023/10/24 07:12:43;;;;;;;16.90;6.00;;;14.90;99.90;;;;;;5070575;28;20560;-64
2023/10/24 07:15:10;;;;;;;18.73;6.43;;;14.90;99.90;;;;;;5077646;28;20549;-64
2023/10/24 07:17:43;;;;;;;7.57;6.57;;;;;;;;;;5058812;28;20487;-65
2023/10/24 07:20:11;;;;;;;12.13;6.20;;;14.80;99.90;;;;;;5058572;28;21237;-61
2023/10/24 07:22:38;;;;;;;10.13;5.47;;;14.80;99.90;;;;;;5070668;28;20560;-61
2023/10/24 07:25:07;;;;;;;6.00;4.93;;;14.80;99.90;;;;;;5062370;28;20475;-61
2023/10/24 07:27:34;;;;;;;22.07;5.40;;;14.90;99.90;;;;;;5057677;28;20591;-62
2023/10/24 07:30:01;;;;;;;7.03;4.60;;;14.90;99.90;;;;;;5057855;28;20550;-62
2023/10/24 07:32:28;;;;;;;5.70;4.43;;;14.90;99.90;;;;;;5053092;28;21070;-62
2023/10/24 07:34:56;;;;;;;6.43;4.73;;;14.80;99.90;;;;;;5081497;28;20548;-61
2023/10/24 07:37:23;;;;;;;3.40;3.10;;;14.70;99.90;;;;;;5052049;28;20476;-61
2023/10/24 07:39:50;;;;;;;8.53;3.67;;;14.70;99.90;;;;;;5083774;28;20471;-61
2023/10/24 07:42:18;;;;;;;15.90;7.53;;;14.70;99.90;;;;;;5057975;28;20479;-62
2023/10/24 07:44:45;;;;;;;6.70;4.17;;;14.70;99.90;;;;;;5081896;28;20573;-61
2023/10/24 07:47:12;;;;;;;9.50;4.50;;;14.70;99.90;;;;;;5056734;28;21071;-61
2023/10/24 07:49:39;;;;;;;8.43;4.30;;;14.70;99.90;;;;;;5067263;28;22193;-61
2023/10/24 07:52:06;;;;;;;6.60;4.43;;;14.60;99.90;;;;;;5082559;28;20499;-62
2023/10/24 07:54:34;;;;;;;9.83;4.10;;;14.60;99.90;;;;;;5057513;28;21111;-61
2023/10/24 07:57:02;;;;;;;12.30;6.37;;;14.60;99.90;;;;;;5073357;28;21274;-61
2023/10/24 07:59:30;;;;;;;4.90;4.20;;;14.60;99.90;;;;;;5055050;28;20890;-60
2023/10/24 08:01:57;;;;;;;32.50;5.90;;;14.50;99.90;;;;;;5057853;28;20588;-61
2023/10/24 08:04:25;;;;;;;10.37;5.60;;;14.50;99.90;;;;;;5073750;28;20942;-61
2023/10/24 08:06:53;;;;;;;13.43;5.00;;;14.40;99.90;;;;;;5049268;28;20824;-61
2023/10/24 08:09:20;;;;;;;12.07;4.47;;;14.40;99.90;;;;;;5076125;28;20557;-61
2023/10/24 08:11:47;;;;;;;6.90;5.17;;;;;;;;;;5065197;28;20563;-60
2023/10/24 08:14:13;;;;;;;11.73;5.67;;;14.50;99.90;;;;;;5073365;28;20492;-62
2023/10/24 08:16:42;;;;;;;8.93;5.37;;;14.60;99.90;;;;;;5079142;28;20585;-63
2023/10/24 08:19:08;;;;;;;6.10;4.50;;;14.70;99.90;;;;;;5042594;28;20576;-62
2023/10/24 08:21:35;;;;;;;5.83;5.23;;;14.80;99.90;;;;;;5056337;28;20501;-61
2023/10/24 08:24:02;;;;;;;7.63;4.20;;;14.90;99.90;;;;;;5080582;28;21347;-62
2023/10/24 08:26:28;;;;;;;5.20;4.23;;;14.90;99.90;;;;;;5054668;28;20467;-62
2023/10/24 08:28:55;;;;;;;12.03;5.73;;;14.90;99.90;;;;;;5044261;28;20546;-62
2023/10/24 08:31:22;;;;;;;4.77;4.27;;;14.80;99.90;;;;;;5081430;28;20493;-63
2023/10/24 08:33:50;;;;;;;11.03;3.40;;;14.80;99.90;;;;;;5063403;28;20483;-62
2023/10/24 08:36:17;;;;;;;9.30;3.80;;;14.70;99.90;;;;;;5058500;28;20969;-61
2023/10/24 08:38:44;;;;;;;4.17;2.33;;;14.60;99.90;;;;;;5057865;28;20512;-63
2023/10/24 08:41:11;;;;;;;4.87;2.10;;;14.50;99.90;;;;;;5044935;28;20478;-62
2023/10/24 08:43:37;;;;;;;3.87;1.90;;;14.50;99.90;;;;;;5082014;28;20487;-62
2023/10/24 08:46:05;;;;;;;2.10;1.53;;;14.50;99.90;;;;;;5051766;28;20892;-62
2023/10/24 08:48:33;;;;;;;2.20;1.60;;;14.40;99.90;;;;;;5074118;28;20563;-63
2023/10/24 08:51:02;;;;;;;4.93;2.13;;;14.40;99.90;;;;;;5057173;28;20801;-61
2023/10/24 08:53:29;;;;;;;4.53;2.37;;;14.40;99.90;;;;;;5077329;28;20851;-63
2023/10/24 08:55:57;;;;;;;2.27;1.77;;;14.40;99.90;;;;;;5053113;28;20576;-63
2023/10/24 08:58:25;;;;;;;6.20;1.77;;;14.30;99.90;;;;;;5068098;28;20505;-63
2023/10/24 09:00:52;;;;;;;2.20;1.40;;;14.30;99.90;;;;;;5054740;28;20580;-62
2023/10/24 09:03:19;;;;;;;3.27;1.47;;;14.40;99.90;;;;;;5084353;28;20481;-62
2023/10/24 09:05:47;;;;;;;2.20;1.50;;;14.40;99.90;;;;;;5056580;28;20526;-62
2023/10/24 09:08:16;;;;;;;3.70;1.53;;;14.30;99.90;;;;;;5082819;28;20555;-62
2023/10/24 09:10:43;;;;;;;3.70;1.70;;;14.40;99.90;;;;;;5064351;28;20514;-63
2023/10/24 09:13:10;;;;;;;3.90;1.53;;;14.40;99.90;;;;;;5059095;28;20483;-63
2023/10/24 09:15:39;;;;;;;3.80;1.90;;;14.40;99.90;;;;;;5062665;28;20564;-61
2023/10/24 09:18:06;;;;;;;3.03;1.10;;;14.40;99.90;;;;;;5062573;28;20553;-62
2023/10/24 09:20:33;;;;;;;6.50;1.77;;;14.40;99.90;;;;;;5059310;28;20482;-62
2023/10/24 09:23:04;;;;;;;2.90;1.10;;;14.40;99.90;;;;;;5057073;28;20470;-62
2023/10/24 09:25:33;;;;;;;7.13;1.13;;;14.40;99.90;;;;;;5059864;28;20510;-62
2023/10/24 09:28:16;;;;;;;1.53;0.70;;;;;;;;;;5062853;28;20497;-61
2023/10/24 09:30:43;;;;;;;3.90;1.20;;;14.40;99.90;;;;;;5052736;28;20479;-61
2023/10/24 09:33:10;;;;;;;2.43;1.00;;;14.50;99.90;;;;;;5057392;28;21042;-61
2023/10/24 09:35:37;;;;;;;3.70;1.00;;;14.40;99.90;;;;;;5058666;28;20550;-62
2023/10/24 09:38:07;;;;;;;6.07;1.40;;;14.40;99.90;;;;;;5059901;28;20582;-61
2023/10/24 09:40:38;;;;;;;7.23;1.03;;;14.40;99.90;;;;;;5062645;28;20551;-62
2023/10/24 09:43:08;;;;;;;1.83;1.10;;;14.50;99.90;;;;;;5078447;28;20513;-62
2023/10/24 09:45:35;;;;;;;9.13;1.47;;;14.50;99.90;;;;;;5071365;28;20555;-61
2023/10/24 09:48:03;;;;;;;3.17;0.80;;;14.60;99.90;;;;;;5064595;28;20475;-61
2023/10/24 09:50:31;;;;;;;2.60;1.17;;;14.60;99.90;;;;;;5060030;28;20485;-62
2023/10/24 09:53:00;;;;;;;6.40;1.27;;;14.60;99.90;;;;;;5063480;28;21063;-62
2023/10/24 09:55:27;;;;;;;1.60;0.80;;;14.60;99.90;;;;;;5075921;28;20537;-62
2023/10/24 09:57:58;;;;;;;1.80;0.90;;;14.60;99.90;;;;;;5057741;28;20611;-62
2023/10/24 10:00:25;;;;;;;1.60;0.87;;;14.60;99.90;;;;;;5060275;28;21103;-63
2023/10/24 10:02:57;;;;;;;9.00;1.40;;;14.70;99.90;;;;;;5074646;28;20565;-61
2023/10/24 10:05:26;;;;;;;1.90;1.10;;;14.70;99.90;;;;;;5055173;28;20474;-63
2023/10/24 10:07:54;;;;;;;4.20;1.17;;;14.80;99.90;;;;;;5062440;28;20469;-62
2023/10/24 10:10:24;;;;;;;1.80;0.87;;;14.80;99.90;;;;;;5068207;28;20458;-62
2023/10/24 10:12:51;;;;;;;21.47;2.57;;;;;;;;;;5053189;28;20577;-62
2023/10/24 10:15:38;;;;;;;3.03;1.03;;;14.60;99.90;;;;;;5078930;28;20476;-62
2023/10/24 10:18:16;;;;;;;5.30;1.27;;;14.70;99.90;;;;;;5060676;28;20491;-61
2023/10/24 10:20:50;;;;;;;2.07;0.90;;;14.80;99.90;;;;;;5058544;28;20532;-62
2023/10/24 10:23:34;;;;;;;1.50;0.70;;;14.80;99.90;;;;;;5049039;28;20474;-61
2023/10/24 10:26:07;;;;;;;3.27;0.93;;;14.90;99.90;;;;;;5057400;28;20574;-61
2023/10/24 10:28:54;;;;;;;6.27;1.20;;;14.90;99.90;;;;;;5048498;28;20498;-64
2023/10/24 10:31:43;;;;;;;8.13;1.37;;;14.90;99.90;;;;;;5054404;28;20480;-64
2023/10/24 10:34:10;;;;;;;2.50;1.87;;;15.00;99.90;;;;;;5062035;28;20574;-64
2023/10/24 10:36:39;;;;;;;6.70;1.00;;;15.10;99.90;;;;;;5076285;28;20564;-64
2023/10/24 10:39:10;;;;;;;1.80;1.00;;;15.00;99.90;;;;;;5039112;28;21201;-65
2023/10/24 10:41:39;;;;;;;5.50;1.20;;;14.90;99.90;;;;;;5067733;28;20490;-64
2023/10/24 10:44:41;;;;;;;1.67;0.97;;;14.90;99.90;;;;;;5071175;28;20523;-64
2023/10/24 10:47:13;;;;;;;8.70;1.80;;;15.00;99.90;;;;;;5069197;28;20470;-64
2023/10/24 10:49:44;;;;;;;2.00;1.13;;;15.00;99.90;;;;;;5056984;28;20502;-61
2023/10/24 10:52:28;;;;;;;4.27;1.27;;;15.00;99.90;;;;;;5080281;28;21013;-62
2023/10/24 10:55:06;;;;;;;5.53;1.30;;;15.10;99.90;;;;;;5059754;28;20887;-62
2023/10/24 10:57:41;;;;;;;1.70;1.00;;;15.00;99.90;;;;;;5057046;28;20497;-62
2023/10/24 11:00:14;;;;;;;1.70;1.00;;;15.10;99.90;;;;;;5054608;28;20480;-62
2023/10/24 11:02:49;;;;;;;1.77;0.80;;;;;;;;;;5080374;28;20485;-61
2023/10/24 11:05:50;;;;;;;1.80;0.93;;;15.30;99.90;;;;;;5068586;28;20603;-61
2023/10/24 11:08:22;;;;;;;1.70;0.97;;;15.20;99.90;;;;;;5048772;28;20495;-62
2023/10/24 11:11:00;;;;;;;17.17;1.80;;;15.30;99.90;;;;;;5060316;28;20490;-62
2023/10/24 11:13:34;;;;;;;1.70;0.90;;;15.30;99.90;;;;;;5072752;28;20488;-62
2023/10/24 11:16:02;;;;;;;12.63;1.63;;;15.40;99.90;;;;;;5056055;28;20557;-62
2023/10/24 11:18:41;;;;;;;3.40;1.30;;;15.30;99.90;;;;;;5062237;28;21056;-62
2023/10/24 11:21:12;;;;;;;2.10;1.10;;;15.30;99.90;;;;;;5071115;28;20982;-62
2023/10/24 11:23:42;;;;;;;8.23;1.93;;;15.30;99.90;;;;;;5052327;28;21003;-62
2023/10/24 11:26:09;;;;;;;3.70;1.60;;;15.30;99.90;;;;;;5046365;28;20482;-62
2023/10/24 11:28:44;;;;;;;11.70;1.43;;;15.50;99.90;;;;;;5087595;28;20576;-61
2023/10/24 11:31:21;;;;;;;5.53;1.13;;;15.70;99.90;;;;;;5076840;28;20664;-61
2023/10/24 11:33:50;;;;;;;2.47;0.90;;;15.70;99.90;;;;;;5074439;28;20473;-62
2023/10/24 11:36:17;;;;;;;10.67;1.63;;;15.70;99.90;;;;;;5057942;28;20554;-62
2023/10/24 11:38:44;;;;;;;1.80;0.80;;;15.60;99.90;;;;;;5072232;28;20561;-62
2023/10/24 11:41:11;;;;;;;3.70;1.37;;;15.60;99.90;;;;;;5067721;28;20473;-61
2023/10/24 11:43:38;;;;;;;5.40;0.97;;;15.50;99.90;;;;;;5068974;28;20479;-62
2023/10/24 11:46:05;;;;;;;1.83;0.90;;;15.40;99.90;;;;;;5038538;28;20489;-61
2023/10/24 11:48:32;;;;;;;2.47;1.17;;;15.50;99.90;;;;;;5060361;28;20481;-62
2023/10/24 11:51:03;;;;;;;1.97;0.97;;;15.50;99.90;;;;;;5059763;28;20612;-62
2023/10/24 11:53:31;;;;;;;1.90;0.90;;;15.50;99.90;;;;;;5062857;28;20933;-61
2023/10/24 11:55:58;;;;;;;16.77;2.00;;;15.60;99.90;;;;;;5062990;28;20567;-62
2023/10/24 11:58:32;;;;;;;1.60;0.80;;;15.60;99.90;;;;;;5025815;28;20930;-64
2023/10/24 12:01:00;;;;;;;1.63;0.87;;;15.70;99.90;;;;;;5057099;28;21014;-64
2023/10/24 12:03:27;;;;;;;1.83;1.07;;;15.60;99.90;;;;;;5058475;28;20508;-64
2023/10/24 12:05:55;;;;;;;1.70;0.70;;;15.70;99.90;;;;;;5075978;28;20482;-65
2023/10/24 12:08:25;;;;;;;5.20;1.70;;;15.70;99.90;;;;;;5047795;28;20482;-64
2023/10/24 12:10:56;;;;;;;4.03;1.00;;;;;;;;;;5053043;28;20549;-64
2023/10/24 12:13:23;;;;;;;4.10;1.03;;;15.70;99.90;;;;;;5068990;28;20477;-64
2023/10/24 12:15:50;;;;;;;2.53;1.00;;;15.70;99.90;;;;;;5055866;28;20496;-64
2023/10/24 12:18:17;;;;;;;3.40;1.00;;;15.70;99.90;;;;;;5060696;28;20564;-64
2023/10/24 12:20:44;;;;;;;4.50;1.30;;;15.70;99.90;;;;;;5065320;28;20566;-64
2023/10/24 12:23:11;;;;;;;6.70;1.60;;;15.70;99.90;;;;;;5053701;28;20570;-65
2023/10/24 12:25:39;;;;;;;9.17;1.50;;;15.70;99.90;;;;;;5034850;28;20546;-64
2023/10/24 12:28:06;;;;;;;1.83;1.00;;;15.70;99.90;;;;;;5057733;28;20554;-65
2023/10/24 12:30:32;;;;;;;17.87;2.23;;;15.60;99.90;;;;;;5073596;28;21130;-65
2023/10/24 12:32:59;;;;;;;1.90;0.97;;;15.60;99.90;;;;;;5064192;28;20564;-65
2023/10/24 12:35:26;;;;;;;4.03;1.60;;;15.50;99.90;;;;;;5050926;28;20537;-64
2023/10/24 12:37:53;;;;;;;4.13;2.07;;;15.60;99.90;;;;;;5050166;28;20576;-65
2023/10/24 12:40:20;;;;;;;7.73;3.37;;;15.60;99.90;;;;;;5073218;28;20978;-64
2023/10/24 12:42:48;;;;;;;4.70;2.87;;;15.60;99.90;;;;;;5067788;28;21052;-64
2023/10/24 12:45:15;;;;;;;1.80;1.00;;;15.50;99.90;;;;;;5055934;28;20490;-64
2023/10/24 12:47:42;;;;;;;2.33;1.27;;;;;;;;;;5054796;28;20561;-62
2023/10/24 12:50:09;;;;;;;1.70;0.90;;;15.50;99.90;;;;;;5047208;28;20573;-63
2023/10/24 12:52:36;;;;;;;3.80;2.40;;;15.50;99.90;;;;;;5049496;28;21077;-62
2023/10/24 12:55:03;;;;;;;7.10;3.50;;;15.50;99.90;;;;;;5060508;28;20473;-62